HK-0001 weather

CLOSED Sha Tin Airfield
Hong Kong, Hong Kong

Public forecast

Using degrees Celsius for public forecast. Weather courtesy of forecast.io.

Closest aviation weather report (METAR) to Sha Tin Airfield

Closest report is Hong Kong International Airport, 15.9 nm (29.4 km) WSW. Retrieved 2020/06/02 01:30 UTC (37 minutes ago):

VHHH 020130Z 17008KT 140V220 9999 -SHRA FEW012 FEW018CB SCT025 29/26 Q1011 RERA TEMPO 4000 SHRA

Closest aviation forecast (TAF) to Sha Tin Airfield

Closest forecast is Hong Kong International Airport, 15.9 nm (29.4 km) WSW. Retrieved 2020-06-02 00:26 UTC (2 hours ago):

TAF VHHH 012300Z 0200/0306 22010KT 9999 FEW015 SCT035 TX33/0206Z TX33/0306Z TN27/0222Z TEMPO 0200/0206 2000 TSRA FEW008CB SCT015 BKN040 TEMPO 0206/0209 4000 SHRA FEW010CB SCT020